Time;durP1;ratioP1;P1;durP2;ratioP2;P2;SDS_P1;SDS_P2;PMS_P1;PMS_P2;Temp;Humidity;BMP_temperature;BMP_pressure;BME280_temperature;BME280_humidity;BME280_pressure;Samples;Min_cycle;Max_cycle;Signal;HPM_P1;HPM_P2
2022/01/02 00:01:02;;;;;;;7.20;4.65;;;;;;;10.75;87.33;101581.59;2080461;28;44251;-69
2022/01/02 00:02:09;;;;;;;7.97;4.88;;;;;;;10.76;87.12;101579.78;2080749;28;28140;-69
2022/01/02 00:03:18;;;;;;;7.57;5.03;;;;;;;10.73;87.36;101574.47;2078333;28;44873;-69
2022/01/02 00:04:22;;;;;;;8.80;5.05;;;;;;;10.72;87.40;101583.41;2079593;28;45710;-69
2022/01/02 00:05:24;;;;;;;7.72;4.88;;;;;;;10.73;87.30;101585.16;2079006;28;44874;-68
2022/01/02 00:06:31;;;;;;;8.63;5.20;;;;;;;10.74;87.41;101578.91;2073099;28;24335;-68
2022/01/02 00:07:44;;;;;;;8.98;5.30;;;;;;;10.71;87.39;101585.19;2073393;28;27751;-69
2022/01/02 00:08:48;;;;;;;7.88;5.47;;;;;;;10.73;87.73;101585.16;2072402;28;44698;-69
2022/01/02 00:09:51;;;;;;;7.57;4.90;;;;;;;10.73;87.55;101585.16;2072802;28;45401;-69
2022/01/02 00:10:58;;;;;;;8.57;5.38;;;;;;;10.72;87.53;101578.06;2080070;28;45611;-69
2022/01/02 00:12:06;;;;;;;8.95;5.03;;;;;;;10.72;87.40;101578.06;2080078;28;44447;-69
2022/01/02 00:13:14;;;;;;;7.70;4.70;;;;;;;10.73;87.25;101569.09;2079409;28;30491;-69
2022/01/02 00:14:22;;;;;;;7.93;5.05;;;;;;;10.69;87.51;101569.16;2072500;28;43298;-68
2022/01/02 00:15:26;;;;;;;7.43;5.22;;;;;;;10.70;87.65;101567.38;2071984;28;45105;-69
2022/01/02 00:16:28;;;;;;;8.32;5.25;;;;;;;10.70;87.48;101565.56;2072605;28;44941;-69
2022/01/02 00:17:31;;;;;;;9.13;5.38;;;;;;;10.72;87.44;101564.66;2080260;28;45781;-69
2022/01/02 00:18:38;;;;;;;8.70;5.45;;;;;;;10.72;87.51;101564.66;2080200;28;46238;-69
2022/01/02 00:19:51;;;;;;;7.05;5.05;;;;;;;10.72;87.29;101570.91;2079558;28;43503;-69
2022/01/02 00:20:55;;;;;;;9.80;5.60;;;;;;;10.72;87.45;101570.03;2080191;28;43945;-69
2022/01/02 00:22:01;;;;;;;8.50;5.30;;;;;;;10.74;87.36;101571.75;2078534;28;45213;-69
2022/01/02 00:23:06;;;;;;;7.22;5.13;;;;;;;10.72;87.18;101560.19;2072495;28;44253;-69
2022/01/02 00:24:16;;;;;;;8.73;5.32;;;;;;;10.72;87.56;101570.03;2072738;28;44466;-68
2022/01/02 00:25:28;;;;;;;11.85;5.53;;;;;;;10.73;87.59;101564.66;2072588;28;45935;-69
2022/01/02 00:26:38;;;;;;;8.43;5.05;;;;;;;10.73;87.69;101558.38;2072218;28;46798;-69
2022/01/02 00:27:41;;;;;;;10.52;5.68;;;;;;;10.72;87.92;101564.66;2072841;28;45314;-69
2022/01/02 00:28:46;;;;;;;7.80;5.03;;;;;;;10.72;88.03;101562.00;2073514;28;20128;-69
2022/01/02 00:29:51;;;;;;;8.70;5.88;;;;;;;10.68;87.91;101567.38;2081250;28;20156;-69
2022/01/02 00:30:55;;;;;;;8.13;5.10;;;;;;;10.68;88.48;101562.03;2080969;28;20111;-69
2022/01/02 00:31:56;;;;;;;10.60;5.50;;;;;;;10.69;88.03;101563.81;2079762;28;45479;-69
2022/01/02 00:33:00;;;;;;;8.50;5.68;;;;;;;10.69;88.09;101562.91;2073145;28;33376;-69
2022/01/02 00:34:04;;;;;;;8.27;5.40;;;;;;;10.68;88.28;101558.47;2080181;28;43473;-69
2022/01/02 00:35:06;;;;;;;8.32;5.68;;;;;;;10.65;88.91;101556.69;2079684;28;22321;-69
2022/01/02 00:36:08;;;;;;;9.55;5.32;;;;;;;10.65;88.52;101564.72;2072552;28;45220;-69
2022/01/02 00:37:09;;;;;;;9.65;5.43;;;;;;;10.67;88.49;101560.25;2072737;28;43765;-69
2022/01/02 00:38:20;;;;;;;8.65;5.28;;;;;;;10.67;88.46;101560.25;2073389;28;22756;-69
2022/01/02 00:39:22;;;;;;;10.95;5.47;;;;;;;10.65;88.69;101558.50;2072806;28;44733;-69
2022/01/02 00:40:23;;;;;;;8.68;5.40;;;;;;;10.64;88.93;101565.66;2071574;28;44192;-69
2022/01/02 00:41:40;;;;;;;9.05;5.97;;;;;;;10.63;89.20;101552.28;2071789;28;44712;-69
2022/01/02 00:42:43;;;;;;;8.43;6.00;;;;;;;10.61;89.19;101563.00;2073176;28;42961;-69
2022/01/02 00:43:54;;;;;;;8.27;5.88;;;;;;;10.61;89.35;101551.44;2080186;28;40863;-69
2022/01/02 00:45:19;;;;;;;9.57;5.50;;;;;;;10.61;89.03;101549.63;2071640;28;44058;-69
2022/01/02 00:46:21;;;;;;;8.77;5.40;;;;;;;10.60;89.73;101547.84;2071847;28;28092;-69
2022/01/02 00:47:32;;;;;;;8.50;5.57;;;;;;;10.59;89.74;101551.44;2063895;28;45239;-69
2022/01/02 00:48:39;;;;;;;8.32;5.75;;;;;;;10.57;89.63;101545.22;2071404;28;43289;-68
2022/01/02 00:49:52;;;;;;;8.05;6.40;;;;;;;10.53;90.26;101543.47;2071416;28;44266;-70
2022/01/02 00:51:14;;;;;;;9.60;6.40;;;;;;;10.50;91.13;101541.72;2072071;28;44701;-69
2022/01/02 00:52:17;;;;;;;9.88;5.38;;;;;;;10.48;90.72;101542.63;2073570;28;20157;-69
2022/01/02 00:53:24;;;;;;;11.02;6.45;;;;;;;10.43;91.55;101537.38;2072620;28;20074;-70
2022/01/02 00:54:29;;;;;;;11.13;6.93;;;;;;;10.39;91.96;101540.09;2072689;28;20950;-69
2022/01/02 00:55:34;;;;;;;10.55;7.03;;;;;;;10.38;91.81;101535.66;2064259;28;29594;-70
2022/01/02 00:56:43;;;;;;;9.50;6.30;;;;;;;10.36;91.71;101530.31;2065343;28;20983;-70
2022/01/02 00:58:00;;;;;;;10.05;7.10;;;;;;;10.34;92.03;101539.25;2080377;28;20042;-69
2022/01/02 00:59:20;;;;;;;9.65;7.40;;;;;;;10.30;92.80;101541.94;2081269;28;20891;-68
2022/01/02 01:00:22;;;;;;;10.98;6.68;;;;;;;10.28;93.03;101546.44;2072894;28;20945;-70
2022/01/02 01:01:35;;;;;;;10.75;7.57;;;;;;;10.25;93.20;101549.16;2066713;28;20169;-69
2022/01/02 01:02:47;;;;;;;10.52;7.05;;;;;;;10.23;93.44;101545.59;2065165;28;46149;-69
2022/01/02 01:03:53;;;;;;;13.30;7.20;;;;;;;10.20;93.19;101540.28;2066783;28;20761;-70
2022/01/02 01:05:04;;;;;;;12.15;7.20;;;;;;;10.21;93.82;101551.88;2074601;28;20861;-70
2022/01/02 01:06:09;;;;;;;15.68;8.38;;;;;;;10.19;93.89;101561.69;2078189;28;37600;-69
2022/01/02 01:07:13;;;;;;;12.57;7.40;;;;;;;10.18;93.98;101557.28;2080205;28;42237;-70
2022/01/02 01:08:15;;;;;;;12.07;7.95;;;;;;;10.16;93.92;101554.63;2079198;28;46364;-69
2022/01/02 01:09:18;;;;;;;13.15;8.23;;;;;;;10.15;93.79;101555.50;2064345;28;32002;-69
2022/01/02 01:10:22;;;;;;;13.15;8.82;;;;;;;10.16;93.76;101543.00;2064511;28;31675;-69
2022/01/02 01:11:28;;;;;;;11.85;7.97;;;;;;;10.13;94.24;101542.13;2072470;28;44536;-70
2022/01/02 01:12:30;;;;;;;13.32;8.35;;;;;;;10.13;93.94;101534.09;2071414;28;44162;-70
2022/01/02 01:13:33;;;;;;;12.63;8.43;;;;;;;10.12;93.94;101536.78;2071714;28;44135;-68
2022/01/02 01:14:35;;;;;;;15.20;8.93;;;;;;;10.09;94.35;101521.69;2071322;28;44519;-69
2022/01/02 01:15:38;;;;;;;13.77;8.07;;;;;;;10.09;94.22;101520.81;2064619;28;20908;-69
2022/01/02 01:16:42;;;;;;;13.07;8.20;;;;;;;10.10;93.93;101519.88;2072669;28;20049;-69
2022/01/02 01:17:54;;;;;;;10.40;8.05;;;;;;;10.08;94.67;101508.31;2072626;28;20050;-69
2022/01/02 01:18:58;;;;;;;14.45;8.10;;;;;;;10.08;94.59;101500.28;2064164;28;45208;-70
2022/01/02 01:20:05;;;;;;;14.63;7.63;;;;;;;10.08;94.22;101501.16;2072743;28;20820;-69
2022/01/02 01:21:09;;;;;;;11.82;7.70;;;;;;;10.07;94.36;101494.06;2073353;28;20043;-70
2022/01/02 01:22:11;;;;;;;16.35;8.35;;;;;;;10.06;94.21;101496.75;2080153;28;34426;-70
2022/01/02 01:23:16;;;;;;;12.52;8.80;;;;;;;10.05;94.92;101500.31;2081082;28;21038;-69
2022/01/02 01:24:20;;;;;;;12.60;8.88;;;;;;;10.05;94.63;101505.66;2072515;28;20169;-70
2022/01/02 01:25:24;;;;;;;13.40;7.85;;;;;;;10.05;94.71;101511.00;2056756;28;20054;-69
2022/01/02 01:26:26;;;;;;;12.85;8.20;;;;;;;10.05;94.96;101508.34;2057120;28;20054;-70
2022/01/02 01:27:28;;;;;;;11.38;7.65;;;;;;;10.03;94.83;101504.81;2072123;28;30499;-69
2022/01/02 01:28:29;;;;;;;14.48;8.60;;;;;;;10.03;95.13;101510.16;2072119;28;42042;-69
2022/01/02 01:29:34;;;;;;;13.85;8.73;;;;;;;10.03;95.08;101507.47;2073197;28;24817;-69
2022/01/02 01:30:39;;;;;;;12.35;8.48;;;;;;;10.02;95.19;101527.13;2072739;28;20165;-69
2022/01/02 01:31:40;;;;;;;14.48;8.35;;;;;;;10.02;95.05;101517.31;2072736;28;20073;-70
2022/01/02 01:32:44;;;;;;;14.15;8.30;;;;;;;10.03;94.96;101518.19;2072881;28;20046;-69
2022/01/02 01:33:48;;;;;;;12.75;8.23;;;;;;;10.03;94.67;101521.75;2072332;28;43331;-70
2022/01/02 01:34:50;;;;;;;12.07;8.48;;;;;;;10.02;94.96;101527.13;2080016;28;20057;-70
2022/01/02 01:35:51;;;;;;;15.30;9.25;;;;;;;10.01;94.67;101520.88;2079694;28;43644;-70
2022/01/02 01:36:55;;;;;;;14.27;8.35;;;;;;;10.01;94.72;101531.56;2072373;28;20034;-70
2022/01/02 01:37:56;;;;;;;13.82;8.70;;;;;;;10.01;94.72;101526.22;2064229;28;20426;-69
2022/01/02 01:38:58;;;;;;;16.88;9.40;;;;;;;10.02;94.76;101532.47;2072701;28;20041;-69
2022/01/02 01:40:01;;;;;;;12.98;8.60;;;;;;;9.99;94.96;101533.38;2072184;28;20058;-69
2022/01/02 01:41:14;;;;;;;17.45;8.80;;;;;;;10.02;95.29;101529.81;2064647;28;20049;-69
2022/01/02 01:42:26;;;;;;;16.67;8.75;;;;;;;10.01;95.09;101531.56;2065191;28;20055;-69
2022/01/02 01:43:51;;;;;;;18.05;9.05;;;;;;;10.00;95.54;101526.25;2065649;28;20134;-70
2022/01/02 01:46:14;;;;;;;13.13;8.95;;;;;;;9.98;95.08;101528.94;2074336;28;20078;-69
2022/01/02 01:47:16;;;;;;;13.02;8.07;;;;;;;9.99;94.69;101527.16;2079747;28;40747;-69
2022/01/02 01:48:17;;;;;;;13.25;9.20;;;;;;;9.99;95.11;101525.34;2072375;28;36905;-70
2022/01/02 01:49:27;;;;;;;12.00;8.70;;;;;;;9.99;95.04;101525.34;2072109;28;28308;-69
2022/01/02 01:50:34;;;;;;;;;;;;;;;9.99;94.95;101524.47;2065403;28;20190;-69
2022/01/02 01:51:36;;;;;;;14.35;8.68;;;;;;;9.99;94.70;101530.69;2072971;28;20064;-69
2022/01/02 01:52:39;;;;;;;14.10;8.88;;;;;;;10.00;94.90;101526.25;2072098;28;20878;-70
2022/01/02 01:53:41;;;;;;;15.00;8.93;;;;;;;9.99;95.30;101530.69;2072422;28;21093;-69
2022/01/02 01:54:44;;;;;;;15.77;9.23;;;;;;;9.99;94.60;101524.47;2064087;28;20212;-69
2022/01/02 01:55:46;;;;;;;15.55;9.20;;;;;;;10.01;94.57;101533.38;2064330;28;20900;-70
2022/01/02 01:56:51;;;;;;;13.98;8.68;;;;;;;10.00;95.04;101523.59;2063908;28;20062;-69
2022/01/02 01:57:55;;;;;;;16.23;8.93;;;;;;;9.98;94.83;101520.00;2064648;28;20074;-69
2022/01/02 01:58:58;;;;;;;15.55;8.45;;;;;;;9.98;95.20;101512.91;2064389;28;20101;-69
2022/01/02 02:00:06;;;;;;;14.35;9.57;;;;;;;9.99;95.51;101505.75;2071421;28;20839;-69
2022/01/02 02:01:18;;;;;;;14.85;8.73;;;;;;;9.96;95.24;101517.38;2071943;28;20050;-70
2022/01/02 02:02:26;;;;;;;13.00;9.20;;;;;;;9.96;94.58;101511.13;2071910;28;20148;-69
2022/01/02 02:03:28;;;;;;;14.02;8.93;;;;;;;9.96;95.26;101503.09;2063464;28;47378;-69
2022/01/02 02:04:31;;;;;;;14.18;9.13;;;;;;;9.96;94.99;101512.03;2072304;28;21060;-69
2022/01/02 02:05:33;;;;;;;14.40;8.57;;;;;;;9.96;95.31;101497.75;2071925;28;20062;-69
2022/01/02 02:06:39;;;;;;;14.00;9.02;;;;;;;9.96;94.97;101495.97;2055862;28;20820;-69
2022/01/02 02:07:44;;;;;;;13.85;8.27;;;;;;;9.94;95.29;101496.00;2057785;28;20877;-69
2022/01/02 02:08:52;;;;;;;15.38;9.35;;;;;;;9.92;95.46;101500.47;2072470;28;20039;-69
2022/01/02 02:10:11;;;;;;;12.65;8.80;;;;;;;9.94;95.65;101496.00;2072242;28;20042;-69
2022/01/02 02:11:17;;;;;;;15.30;9.35;;;;;;;9.91;95.25;101488.00;2072360;28;20042;-69
2022/01/02 02:12:19;;;;;;;14.52;8.45;;;;;;;9.93;95.49;101491.53;2064400;28;20152;-69
2022/01/02 02:13:22;;;;;;;12.13;8.80;;;;;;;9.93;95.41;101485.31;2072419;28;20043;-69
2022/01/02 02:14:26;;;;;;;15.73;9.38;;;;;;;9.92;95.09;101496.91;2071638;28;21067;-69
2022/01/02 02:15:28;;;;;;;14.02;9.40;;;;;;;9.91;95.83;101487.13;2064356;28;20090;-69
2022/01/02 02:16:31;;;;;;;15.35;9.95;;;;;;;9.91;95.43;101485.31;2071900;28;37312;-69
2022/01/02 02:17:34;;;;;;;15.93;9.25;;;;;;;9.91;95.03;101482.66;2071876;28;20784;-69
2022/01/02 02:18:36;;;;;;;14.27;8.52;;;;;;;9.91;95.22;101496.03;2062996;28;37781;-69
2022/01/02 02:19:37;;;;;;;15.25;8.85;;;;;;;9.91;95.49;101488.00;2072013;28;29481;-69
2022/01/02 02:20:42;;;;;;;14.18;9.07;;;;;;;9.90;94.93;101491.56;2072403;28;20113;-69
2022/01/02 02:21:51;;;;;;;13.45;8.68;;;;;;;9.91;95.18;101497.81;2080255;28;20088;-69
2022/01/02 02:22:57;;;;;;;12.38;8.10;;;;;;;9.91;95.13;101489.78;2080197;28;25700;-69
2022/01/02 02:24:05;;;;;;;15.90;9.27;;;;;;;9.90;95.64;101490.69;2080369;28;20941;-70
2022/01/02 02:25:10;;;;;;;15.27;9.25;;;;;;;9.90;94.98;101491.56;2071926;28;20046;-69
2022/01/02 02:26:12;;;;;;;14.07;8.82;;;;;;;9.91;95.22;101485.31;2072132;28;20047;-69
2022/01/02 02:27:14;;;;;;;18.98;9.52;;;;;;;9.92;95.57;101492.47;2071667;28;24997;-69
2022/01/02 02:28:17;;;;;;;15.40;9.10;;;;;;;9.93;95.57;101496.88;2071424;28;24585;-69
2022/01/02 02:29:23;;;;;;;16.33;9.35;;;;;;;9.94;95.54;101496.00;2064736;28;20050;-69
2022/01/02 02:30:28;;;;;;;15.82;9.00;;;;;;;9.95;95.18;101494.19;2071217;28;40376;-69
2022/01/02 02:31:30;;;;;;;14.73;8.60;;;;;;;9.92;95.78;101483.53;2072043;28;20053;-69
2022/01/02 02:32:32;;;;;;;14.40;9.23;;;;;;;9.93;95.28;101498.69;2071963;28;20050;-69
2022/01/02 02:33:34;;;;;;;14.73;8.52;;;;;;;9.93;95.68;101499.56;2055899;28;20089;-69
2022/01/02 02:34:36;;;;;;;16.77;9.38;;;;;;;9.93;95.32;101496.88;2064346;28;20943;-69
2022/01/02 02:35:41;;;;;;;15.32;8.80;;;;;;;9.94;95.66;101492.41;2071031;28;37449;-69
2022/01/02 02:36:43;;;;;;;19.02;9.13;;;;;;;9.94;94.86;101489.75;2056373;28;20062;-69
2022/01/02 02:37:46;;;;;;;16.15;9.32;;;;;;;9.92;95.84;101489.78;2056661;28;20035;-69
2022/01/02 02:38:50;;;;;;;13.88;8.55;;;;;;;9.93;95.67;101488.84;2072473;28;20157;-69
2022/01/02 02:39:54;;;;;;;12.93;8.90;;;;;;;9.93;95.24;101478.16;2072340;28;20759;-69
2022/01/02 02:40:59;;;;;;;15.52;8.90;;;;;;;9.92;95.47;101468.38;2064577;28;20849;-69
2022/01/02 02:42:10;;;;;;;16.23;9.27;;;;;;;9.95;95.83;101475.47;2063909;28;20043;-69
2022/01/02 02:44:39;;;;;;;17.20;8.45;;;;;;;9.92;95.33;101457.69;2057979;28;20052;-70
2022/01/02 02:49:46;;;;;;;15.73;9.85;;;;;;;9.84;96.45;101448.84;2071712;28;20057;-69
2022/01/02 02:50:50;;;;;;;15.27;10.60;;;;;;;9.84;96.73;101454.19;2070847;28;45632;-69
2022/01/02 02:52:01;;;;;;;18.65;10.07;;;;;;;9.83;96.66;101440.84;2072549;28;20049;-69
2022/01/02 02:53:06;;;;;;;19.85;10.45;;;;;;;9.83;96.53;101438.16;2071622;28;20061;-69
2022/01/02 02:54:09;;;;;;;20.20;11.30;;;;;;;9.81;96.89;101448.88;2072053;28;20050;-70
2022/01/02 02:55:13;;;;;;;21.25;12.23;;;;;;;9.80;96.78;101441.78;2071272;28;35322;-69
2022/01/02 02:56:20;;;;;;;22.73;11.90;;;;;;;9.79;97.61;101440.00;2063422;28;41223;-69
2022/01/02 02:57:23;;;;;;;18.65;11.60;;;;;;;9.79;97.33;101444.47;2064727;28;20946;-69
2022/01/02 02:59:38;;;;;;;22.70;11.43;;;;;;;9.79;97.35;101431.97;2073496;28;20049;-69
2022/01/02 03:00:41;;;;;;;24.02;11.93;;;;;;;9.79;97.18;101423.94;2071738;28;20172;-69
2022/01/02 03:01:43;;;;;;;21.10;12.00;;;;;;;9.79;97.08;101426.63;2071975;28;20046;-69
2022/01/02 03:02:45;;;;;;;22.63;11.90;;;;;;;9.78;97.18;101427.53;2071116;28;40194;-69
2022/01/02 03:03:47;;;;;;;19.08;11.13;;;;;;;9.78;97.54;101426.63;2072043;28;33348;-69
2022/01/02 03:04:49;;;;;;;22.52;12.07;;;;;;;9.78;97.60;101430.22;2071411;28;32758;-69
2022/01/02 03:05:52;;;;;;;22.58;11.50;;;;;;;9.78;97.76;101418.63;2071403;28;20156;-69
2022/01/02 03:06:58;;;;;;;21.50;12.05;;;;;;;9.78;96.97;101422.19;2063783;28;20109;-69
2022/01/02 03:08:01;;;;;;;20.00;11.80;;;;;;;9.78;97.78;101422.19;2064231;28;20038;-69
2022/01/02 03:09:08;;;;;;;23.27;11.90;;;;;;;9.78;97.24;101427.53;2071884;28;20132;-69
2022/01/02 03:10:13;;;;;;;26.02;12.60;;;;;;;9.79;97.26;101423.94;2056628;28;20086;-69
2022/01/02 03:11:19;;;;;;;22.98;11.82;;;;;;;9.79;97.34;101423.06;2064191;28;46051;-67
2022/01/02 03:12:21;;;;;;;20.75;11.45;;;;;;;9.80;97.17;101420.38;2072480;28;20697;-69
2022/01/02 03:13:25;;;;;;;18.75;11.95;;;;;;;9.81;97.41;101421.25;2080083;28;20050;-69
2022/01/02 03:14:27;;;;;;;20.70;11.52;;;;;;;9.81;97.07;101416.78;2079950;28;20042;-69
2022/01/02 03:15:29;;;;;;;22.80;12.00;;;;;;;9.81;97.38;101410.56;2079793;28;22168;-69
2022/01/02 03:16:31;;;;;;;20.65;12.02;;;;;;;9.80;97.26;101415.03;2079008;28;42063;-69
2022/01/02 03:17:33;;;;;;;23.27;12.30;;;;;;;9.80;97.44;101404.34;2079958;28;20026;-69
2022/01/02 03:18:37;;;;;;;20.02;11.48;;;;;;;9.81;97.08;101411.44;2071357;28;20895;-69
2022/01/02 03:19:38;;;;;;;21.95;11.43;;;;;;;9.81;97.40;101419.47;2071720;28;34545;-69
2022/01/02 03:20:40;;;;;;;26.33;12.48;;;;;;;9.82;96.97;101418.56;2071208;28;20050;-69
2022/01/02 03:21:42;;;;;;;21.60;12.18;;;;;;;9.81;97.32;101411.44;2070854;28;41549;-69
2022/01/02 03:22:44;;;;;;;24.80;12.50;;;;;;;9.79;97.60;101407.91;2071267;28;36290;-70
2022/01/02 03:23:45;;;;;;;21.08;12.10;;;;;;;9.80;97.56;101399.00;2072221;28;20149;-69
2022/01/02 03:24:49;;;;;;;24.58;12.32;;;;;;;9.79;97.71;101389.19;2071155;28;43087;-69
2022/01/02 03:25:53;;;;;;;18.88;11.75;;;;;;;9.80;97.58;101396.31;2073000;28;20046;-69
2022/01/02 03:26:56;;;;;;;23.00;12.30;;;;;;;9.79;97.11;101386.50;2071739;28;20233;-69
2022/01/02 03:27:58;;;;;;;19.90;11.15;;;;;;;9.80;97.34;101385.63;2071899;28;21041;-69
2022/01/02 03:29:02;;;;;;;24.58;12.02;;;;;;;9.79;97.40;101386.50;2071446;28;20165;-70
2022/01/02 03:30:05;;;;;;;25.58;12.85;;;;;;;9.79;97.18;101382.97;2071184;28;34711;-70
2022/01/02 03:31:09;;;;;;;25.20;12.13;;;;;;;9.80;97.49;101357.97;2078778;28;34677;-69
2022/01/02 03:32:12;;;;;;;22.95;12.20;;;;;;;9.80;97.14;101368.66;2070892;28;20236;-69
2022/01/02 03:33:14;;;;;;;20.98;12.30;;;;;;;9.79;97.15;101369.59;2071695;28;20038;-69
2022/01/02 03:34:16;;;;;;;19.92;11.82;;;;;;;9.80;97.43;101361.53;2078857;28;41000;-69
2022/01/02 03:35:17;;;;;;;22.05;12.00;;;;;;;9.80;97.13;101361.53;2071581;28;20093;-70
2022/01/02 03:36:20;;;;;;;21.83;11.90;;;;;;;9.79;96.79;101357.09;2071626;28;20119;-69
2022/01/02 03:37:21;;;;;;;18.20;11.00;;;;;;;9.79;97.56;101349.06;2070964;28;34560;-69
2022/01/02 03:38:24;;;;;;;22.65;10.35;;;;;;;9.80;97.45;101353.53;2071448;28;20049;-70
2022/01/02 03:39:26;;;;;;;21.05;11.23;;;;;;;9.81;97.31;101352.59;2071284;28;20145;-70
2022/01/02 03:40:28;;;;;;;18.30;10.13;;;;;;;9.82;96.69;101358.84;2079475;28;32838;-69
2022/01/02 03:41:30;;;;;;;19.95;9.90;;;;;;;9.83;96.73;101349.91;2071553;28;42456;-68
2022/01/02 03:42:32;;;;;;;20.35;10.40;;;;;;;9.82;96.76;101348.16;2071957;28;20039;-70
2022/01/02 03:43:34;;;;;;;20.08;10.52;;;;;;;9.83;96.99;101345.44;2071596;28;20038;-69
2022/01/02 03:44:36;;;;;;;22.48;10.38;;;;;;;9.83;97.25;101348.13;2071446;28;20050;-69
2022/01/02 03:45:38;;;;;;;17.17;10.52;;;;;;;9.83;97.04;101345.44;2071893;28;20042;-69
2022/01/02 03:46:41;;;;;;;16.95;10.27;;;;;;;9.83;97.13;101344.56;2071544;28;20034;-69
2022/01/02 03:47:43;;;;;;;19.55;9.82;;;;;;;9.83;96.53;101339.22;2071599;28;20104;-69
2022/01/02 03:48:45;;;;;;;20.10;10.45;;;;;;;9.83;96.73;101332.06;2071948;28;20046;-70
2022/01/02 03:49:50;;;;;;;18.45;9.70;;;;;;;9.83;96.58;101340.09;2071792;28;21039;-69
2022/01/02 03:50:52;;;;;;;18.88;10.35;;;;;;;9.84;96.59;101341.88;2062690;28;47992;-70
2022/01/02 03:51:56;;;;;;;20.42;10.00;;;;;;;9.83;97.17;101337.41;2063406;28;20073;-70
2022/01/02 03:52:58;;;;;;;17.70;9.55;;;;;;;9.84;97.06;101330.31;2071874;28;20112;-70
2022/01/02 03:54:00;;;;;;;18.60;9.50;;;;;;;9.83;96.77;101318.69;2071549;28;20077;-69
2022/01/02 03:55:03;;;;;;;20.85;9.73;;;;;;;9.83;96.44;101320.50;2070820;28;44153;-69
2022/01/02 03:56:05;;;;;;;19.08;9.73;;;;;;;9.84;96.68;101312.47;2071718;28;41296;-69
2022/01/02 03:57:06;;;;;;;21.85;9.60;;;;;;;9.84;97.17;101304.44;2071353;28;39787;-69
2022/01/02 03:58:08;;;;;;;15.05;9.20;;;;;;;9.84;96.61;101307.09;2079171;28;46245;-69
2022/01/02 03:59:11;;;;;;;17.90;10.15;;;;;;;9.82;96.47;101300.03;2079624;28;27343;-69
2022/01/02 04:00:15;;;;;;;18.30;10.27;;;;;;;9.81;96.70;101296.44;2071457;28;20050;-70
2022/01/02 04:01:17;;;;;;;19.85;9.65;;;;;;;9.82;96.82;101306.25;2071409;28;20209;-69
2022/01/02 04:02:20;;;;;;;18.05;9.40;;;;;;;9.82;96.66;101298.22;2062467;28;41712;-69
2022/01/02 04:03:21;;;;;;;17.90;9.18;;;;;;;9.82;96.37;101298.22;2071389;28;21467;-69
2022/01/02 04:04:23;;;;;;;16.50;9.57;;;;;;;9.81;96.97;101288.41;2072304;28;23626;-69
2022/01/02 04:05:25;;;;;;;22.30;10.85;;;;;;;9.81;96.40;101287.53;2070846;28;27618;-69
2022/01/02 04:06:27;;;;;;;18.48;9.90;;;;;;;9.81;96.80;101285.75;2062879;28;37754;-69
2022/01/02 04:07:28;;;;;;;18.52;9.40;;;;;;;9.81;96.26;101275.06;2071100;28;37188;-69
2022/01/02 04:08:30;;;;;;;16.25;9.20;;;;;;;9.81;96.63;101291.09;2070967;28;37377;-69
2022/01/02 04:09:32;;;;;;;18.52;8.73;;;;;;;9.80;96.47;101292.03;2071593;28;41103;-69
2022/01/02 04:10:34;;;;;;;16.92;9.55;;;;;;;9.80;96.24;101292.03;2072604;28;20034;-70
2022/01/02 04:11:36;;;;;;;19.10;9.63;;;;;;;9.82;96.97;101294.69;2072381;28;20816;-69
2022/01/02 04:12:42;;;;;;;17.83;9.75;;;;;;;9.82;96.97;101290.19;2070789;28;44906;-70
2022/01/02 04:13:44;;;;;;;23.95;9.57;;;;;;;9.82;96.55;101279.50;2063462;28;20142;-69
2022/01/02 04:14:46;;;;;;;17.73;9.30;;;;;;;9.83;96.31;101281.25;2062840;28;20046;-70
2022/01/02 04:15:51;;;;;;;21.85;9.77;;;;;;;9.83;96.72;101280.38;2071734;28;20057;-69
2022/01/02 04:16:53;;;;;;;19.05;9.75;;;;;;;9.83;96.22;101278.56;2071538;28;20053;-69
2022/01/02 04:17:54;;;;;;;16.88;9.27;;;;;;;9.84;96.23;101283.03;2071551;28;20038;-69
2022/01/02 04:18:58;;;;;;;19.70;9.00;;;;;;;9.83;96.71;101272.34;2071918;28;20043;-70
2022/01/02 04:20:03;;;;;;;16.08;9.07;;;;;;;9.85;96.73;101284.81;2071615;28;37846;-69
2022/01/02 04:21:04;;;;;;;18.63;9.40;;;;;;;9.86;96.10;101277.66;2070845;28;27911;-70
2022/01/02 04:22:06;;;;;;;17.55;8.95;;;;;;;9.86;96.61;101281.22;2062050;28;42517;-70
2022/01/02 04:23:08;;;;;;;20.15;9.77;;;;;;;9.86;96.71;101272.31;2064102;28;20089;-69
2022/01/02 04:24:09;;;;;;;18.10;8.70;;;;;;;9.85;96.19;101273.22;2072130;28;44798;-70
2022/01/02 04:25:13;;;;;;;19.13;9.38;;;;;;;9.85;95.94;101265.19;2072436;28;20904;-70
2022/01/02 04:26:15;;;;;;;19.95;10.10;;;;;;;9.84;96.64;101272.34;2064844;28;20043;-70
2022/01/02 04:27:18;;;;;;;16.10;9.20;;;;;;;9.85;96.48;101263.44;2072091;28;35593;-69
2022/01/02 04:28:20;;;;;;;16.45;8.73;;;;;;;9.86;96.71;101264.31;2072646;28;20109;-70
2022/01/02 04:29:22;;;;;;;14.30;8.77;;;;;;;9.85;96.20;101255.41;2072788;28;20973;-70
2022/01/02 04:30:26;;;;;;;19.15;9.15;;;;;;;9.86;95.90;101261.63;2081126;28;20123;-69
2022/01/02 04:31:28;;;;;;;15.07;8.30;;;;;;;9.85;96.73;101260.75;2080632;28;39785;-69
2022/01/02 04:32:31;;;;;;;18.35;9.07;;;;;;;9.85;96.26;101249.16;2072900;28;20058;-70
2022/01/02 04:33:33;;;;;;;16.20;8.65;;;;;;;9.87;96.69;101250.00;2064732;28;20051;-70
2022/01/02 04:34:35;;;;;;;18.52;9.07;;;;;;;9.85;96.18;101247.38;2072747;28;20918;-69
2022/01/02 04:35:37;;;;;;;15.95;9.35;;;;;;;9.85;96.47;101247.38;2080660;28;20050;-69
2022/01/02 04:36:39;;;;;;;16.90;8.98;;;;;;;9.85;96.62;101242.03;2072753;28;20152;-69
2022/01/02 04:37:41;;;;;;;18.48;9.25;;;;;;;9.87;96.05;101244.66;2064733;28;20165;-70
2022/01/02 04:38:45;;;;;;;17.30;9.15;;;;;;;9.85;96.37;101231.34;2072771;28;20051;-69
2022/01/02 04:39:46;;;;;;;19.27;9.02;;;;;;;9.87;96.16;101225.94;2072422;28;20968;-69
2022/01/02 04:40:48;;;;;;;17.13;8.18;;;;;;;9.87;96.36;101236.63;2072715;28;21012;-69
2022/01/02 04:41:53;;;;;;;17.38;8.70;;;;;;;9.87;95.91;101228.59;2072879;28;20038;-69
2022/01/02 04:42:55;;;;;;;18.63;9.00;;;;;;;9.88;96.63;101235.75;2072401;28;20027;-69
2022/01/02 04:43:57;;;;;;;15.00;8.07;;;;;;;9.86;96.02;101235.75;2064596;28;20864;-69
2022/01/02 04:45:01;;;;;;;18.02;8.70;;;;;;;9.87;96.30;101233.97;2063841;28;43707;-69
2022/01/02 04:46:05;;;;;;;14.48;8.40;;;;;;;9.86;95.90;101230.41;2072625;28;20042;-69
2022/01/02 04:47:07;;;;;;;16.73;9.60;;;;;;;9.87;96.28;101234.88;2072779;28;20045;-69
2022/01/02 04:48:09;;;;;;;15.95;8.55;;;;;;;9.87;96.48;101223.25;2072720;28;20043;-69
2022/01/02 04:49:11;;;;;;;18.63;8.98;;;;;;;9.87;95.83;101218.81;2064491;28;20090;-69
2022/01/02 04:50:12;;;;;;;20.25;8.43;;;;;;;9.88;96.35;101220.56;2071874;28;21184;-70
2022/01/02 04:51:15;;;;;;;15.43;8.07;;;;;;;9.88;96.58;101220.56;2080943;28;20822;-69
2022/01/02 04:52:18;;;;;;;16.13;9.10;;;;;;;9.89;96.61;101226.81;2072482;28;20051;-69
2022/01/02 04:53:21;;;;;;;15.32;8.60;;;;;;;9.89;96.25;101219.66;2064711;28;20046;-69
2022/01/02 04:54:24;;;;;;;16.30;8.40;;;;;;;9.90;96.02;101217.88;2064666;28;20904;-69
2022/01/02 04:55:26;;;;;;;16.90;8.00;;;;;;;9.90;96.36;101223.22;2064871;28;20125;-69
2022/01/02 04:56:28;;;;;;;18.35;8.50;;;;;;;9.94;96.54;101224.94;2064670;28;20985;-69
2022/01/02 04:57:30;;;;;;;14.98;7.95;;;;;;;9.94;96.64;101220.47;2072926;28;20042;-69
2022/01/02 04:58:32;;;;;;;18.08;8.40;;;;;;;9.94;95.79;101220.47;2072460;28;20867;-69
2022/01/02 04:59:37;;;;;;;14.65;8.52;;;;;;;9.95;96.06;101213.34;2072686;28;23745;-69
2022/01/02 05:00:39;;;;;;;18.70;8.23;;;;;;;9.94;96.14;101222.25;2072673;28;20181;-68
2022/01/02 05:01:41;;;;;;;16.23;8.00;;;;;;;9.94;96.48;101215.13;2064852;28;20031;-69
2022/01/02 05:02:46;;;;;;;19.00;8.48;;;;;;;9.94;96.06;101215.13;2072703;28;20054;-69
2022/01/02 05:03:48;;;;;;;15.73;8.30;;;;;;;9.97;96.71;101210.63;2080564;28;20041;-70
2022/01/02 05:04:50;;;;;;;18.10;8.52;;;;;;;9.96;96.63;101215.13;2073240;28;20069;-69
2022/01/02 05:05:52;;;;;;;17.02;8.50;;;;;;;9.96;96.16;101212.44;2073313;28;20116;-70